sensor_id;sensor_type;location;lat;lon;timestamp;temperature;humidity
34201;DHT22;20469;55.638;37.670;2023-06-22T00:00:26;13.70;1.00
34201;DHT22;20469;55.638;37.670;2023-06-22T00:02:53;13.70;1.00
34201;DHT22;20469;55.638;37.670;2023-06-22T00:05:21;13.80;1.00
34201;DHT22;20469;55.638;37.670;2023-06-22T00:07:48;13.80;1.00
34201;DHT22;20469;55.638;37.670;2023-06-22T00:10:15;13.70;1.00
34201;DHT22;20469;55.638;37.670;2023-06-22T00:12:44;13.70;1.00
34201;DHT22;20469;55.638;37.670;2023-06-22T00:15:11;13.80;1.00
34201;DHT22;20469;55.638;37.670;2023-06-22T00:17:38;13.70;1.00
34201;DHT22;20469;55.638;37.670;2023-06-22T00:20:05;13.60;1.00
34201;DHT22;20469;55.638;37.670;2023-06-22T00:22:33;13.50;1.00
34201;DHT22;20469;55.638;37.670;2023-06-22T00:25:08;13.50;1.00
34201;DHT22;20469;55.638;37.670;2023-06-22T00:27:36;13.60;1.00
34201;DHT22;20469;55.638;37.670;2023-06-22T00:30:03;13.70;1.00
34201;DHT22;20469;55.638;37.670;2023-06-22T00:32:32;13.60;1.00
34201;DHT22;20469;55.638;37.670;2023-06-22T00:34:59;13.50;1.00
34201;DHT22;20469;55.638;37.670;2023-06-22T00:37:28;13.40;1.00
34201;DHT22;20469;55.638;37.670;2023-06-22T00:39:56;13.30;1.00
34201;DHT22;20469;55.638;37.670;2023-06-22T00:42:24;13.30;1.00
34201;DHT22;20469;55.638;37.670;2023-06-22T00:44:51;13.30;1.00
34201;DHT22;20469;55.638;37.670;2023-06-22T00:47:18;13.20;1.00
34201;DHT22;20469;55.638;37.670;2023-06-22T00:49:48;13.40;1.00
34201;DHT22;20469;55.638;37.670;2023-06-22T00:52:19;13.40;1.00
34201;DHT22;20469;55.638;37.670;2023-06-22T00:54:50;13.30;1.00
34201;DHT22;20469;55.638;37.670;2023-06-22T00:57:18;13.20;1.00
34201;DHT22;20469;55.638;37.670;2023-06-22T00:59:48;13.30;1.00
34201;DHT22;20469;55.638;37.670;2023-06-22T01:02:15;13.60;1.00
34201;DHT22;20469;55.638;37.670;2023-06-22T01:04:42;13.40;1.00
34201;DHT22;20469;55.638;37.670;2023-06-22T01:13:01;13.50;1.00
34201;DHT22;20469;55.638;37.670;2023-06-22T01:15:31;13.70;1.00
34201;DHT22;20469;55.638;37.670;2023-06-22T01:18:01;13.50;1.00
34201;DHT22;20469;55.638;37.670;2023-06-22T01:20:32;13.50;1.00
34201;DHT22;20469;55.638;37.670;2023-06-22T01:26:17;13.90;1.00
34201;DHT22;20469;55.638;37.670;2023-06-22T01:28:54;13.60;1.00
34201;DHT22;20469;55.638;37.670;2023-06-22T01:31:27;13.50;1.00
34201;DHT22;20469;55.638;37.670;2023-06-22T01:34:02;13.50;1.00
34201;DHT22;20469;55.638;37.670;2023-06-22T01:36:31;13.60;1.00
34201;DHT22;20469;55.638;37.670;2023-06-22T01:38:59;13.70;1.00
34201;DHT22;20469;55.638;37.670;2023-06-22T01:41:29;13.50;1.00
34201;DHT22;20469;55.638;37.670;2023-06-22T01:43:57;13.70;1.00
34201;DHT22;20469;55.638;37.670;2023-06-22T01:46:24;13.70;1.00
34201;DHT22;20469;55.638;37.670;2023-06-22T01:48:52;13.60;1.00
34201;DHT22;20469;55.638;37.670;2023-06-22T01:51:20;13.80;1.00
34201;DHT22;20469;55.638;37.670;2023-06-22T01:53:47;13.80;1.00
34201;DHT22;20469;55.638;37.670;2023-06-22T01:56:17;13.80;1.00
34201;DHT22;20469;55.638;37.670;2023-06-22T01:59:14;13.90;1.00
34201;DHT22;20469;55.638;37.670;2023-06-22T02:01:51;13.90;1.00
34201;DHT22;20469;55.638;37.670;2023-06-22T02:04:26;14.30;1.00
34201;DHT22;20469;55.638;37.670;2023-06-22T02:06:58;14.50;1.00
34201;DHT22;20469;55.638;37.670;2023-06-22T02:09:29;14.50;1.00
34201;DHT22;20469;55.638;37.670;2023-06-22T02:11:59;14.60;1.00
34201;DHT22;20469;55.638;37.670;2023-06-22T02:14:27;14.60;1.00
34201;DHT22;20469;55.638;37.670;2023-06-22T02:16:55;14.50;1.00
34201;DHT22;20469;55.638;37.670;2023-06-22T02:19:27;14.40;1.00
34201;DHT22;20469;55.638;37.670;2023-06-22T02:21:54;14.40;1.00
34201;DHT22;20469;55.638;37.670;2023-06-22T02:24:21;14.50;1.00
34201;DHT22;20469;55.638;37.670;2023-06-22T02:26:50;14.70;1.00
34201;DHT22;20469;55.638;37.670;2023-06-22T02:29:17;14.80;1.00
34201;DHT22;20469;55.638;37.670;2023-06-22T02:31:45;14.80;1.00
34201;DHT22;20469;55.638;37.670;2023-06-22T02:34:12;14.90;1.00
34201;DHT22;20469;55.638;37.670;2023-06-22T02:36:46;14.80;1.00
34201;DHT22;20469;55.638;37.670;2023-06-22T02:39:22;14.70;1.00
34201;DHT22;20469;55.638;37.670;2023-06-22T02:41:51;14.80;1.00
34201;DHT22;20469;55.638;37.670;2023-06-22T02:44:19;15.00;1.00
34201;DHT22;20469;55.638;37.670;2023-06-22T02:46:48;14.90;1.00
34201;DHT22;20469;55.638;37.670;2023-06-22T02:49:15;15.00;1.00
34201;DHT22;20469;55.638;37.670;2023-06-22T02:51:45;15.20;1.00
34201;DHT22;20469;55.638;37.670;2023-06-22T02:54:13;15.20;1.00
34201;DHT22;20469;55.638;37.670;2023-06-22T02:56:40;15.40;1.00
34201;DHT22;20469;55.638;37.670;2023-06-22T02:59:10;15.60;1.00
34201;DHT22;20469;55.638;37.670;2023-06-22T03:01:38;15.80;1.00
34201;DHT22;20469;55.638;37.670;2023-06-22T03:04:08;15.60;1.00
34201;DHT22;20469;55.638;37.670;2023-06-22T03:06:36;15.70;1.00
34201;DHT22;20469;55.638;37.670;2023-06-22T03:09:04;16.00;1.00
34201;DHT22;20469;55.638;37.670;2023-06-22T03:11:33;16.00;1.00
34201;DHT22;20469;55.638;37.670;2023-06-22T03:14:01;16.20;1.00
34201;DHT22;20469;55.638;37.670;2023-06-22T03:16:28;16.20;1.00
34201;DHT22;20469;55.638;37.670;2023-06-22T03:18:56;16.30;1.00
34201;DHT22;20469;55.638;37.670;2023-06-22T03:21:28;16.30;1.00
34201;DHT22;20469;55.638;37.670;2023-06-22T03:23:55;16.40;1.00
34201;DHT22;20469;55.638;37.670;2023-06-22T03:26:22;16.40;1.00
34201;DHT22;20469;55.638;37.670;2023-06-22T03:28:54;16.50;1.00
34201;DHT22;20469;55.638;37.670;2023-06-22T03:31:21;16.60;1.00
34201;DHT22;20469;55.638;37.670;2023-06-22T03:33:49;16.60;1.00
34201;DHT22;20469;55.638;37.670;2023-06-22T03:36:18;16.90;1.00
34201;DHT22;20469;55.638;37.670;2023-06-22T03:38:50;17.20;1.00
34201;DHT22;20469;55.638;37.670;2023-06-22T03:41:17;17.50;1.00
34201;DHT22;20469;55.638;37.670;2023-06-22T03:43:45;17.60;1.00
34201;DHT22;20469;55.638;37.670;2023-06-22T03:46:12;17.50;1.00
34201;DHT22;20469;55.638;37.670;2023-06-22T03:48:39;17.20;1.00
34201;DHT22;20469;55.638;37.670;2023-06-22T03:51:06;17.30;1.00
34201;DHT22;20469;55.638;37.670;2023-06-22T03:53:34;17.20;1.00
34201;DHT22;20469;55.638;37.670;2023-06-22T03:56:01;17.40;1.00
34201;DHT22;20469;55.638;37.670;2023-06-22T03:58:28;17.30;1.00
34201;DHT22;20469;55.638;37.670;2023-06-22T04:01:00;17.40;1.00
34201;DHT22;20469;55.638;37.670;2023-06-22T04:03:27;17.60;1.00
34201;DHT22;20469;55.638;37.670;2023-06-22T04:05:54;17.80;1.00
34201;DHT22;20469;55.638;37.670;2023-06-22T04:08:22;17.50;1.00
34201;DHT22;20469;55.638;37.670;2023-06-22T04:10:49;17.70;1.00
34201;DHT22;20469;55.638;37.670;2023-06-22T04:13:16;18.20;1.00
34201;DHT22;20469;55.638;37.670;2023-06-22T04:15:43;17.90;1.00
34201;DHT22;20469;55.638;37.670;2023-06-22T04:18:11;18.30;1.00
34201;DHT22;20469;55.638;37.670;2023-06-22T04:20:38;18.50;1.00
34201;DHT22;20469;55.638;37.670;2023-06-22T04:23:05;19.00;1.00
34201;DHT22;20469;55.638;37.670;2023-06-22T04:25:33;19.70;1.00
34201;DHT22;20469;55.638;37.670;2023-06-22T04:28:00;19.00;1.00
34201;DHT22;20469;55.638;37.670;2023-06-22T04:30:32;19.20;1.00
34201;DHT22;20469;55.638;37.670;2023-06-22T04:32:59;19.60;1.00
34201;DHT22;20469;55.638;37.670;2023-06-22T04:35:27;19.30;1.00
34201;DHT22;20469;55.638;37.670;2023-06-22T04:37:58;19.90;1.00
34201;DHT22;20469;55.638;37.670;2023-06-22T04:40:25;19.60;1.00
34201;DHT22;20469;55.638;37.670;2023-06-22T04:42:53;19.70;1.00
34201;DHT22;20469;55.638;37.670;2023-06-22T04:45:21;19.80;1.00
34201;DHT22;20469;55.638;37.670;2023-06-22T04:47:48;19.80;1.00
34201;DHT22;20469;55.638;37.670;2023-06-22T04:50:16;19.50;1.00
34201;DHT22;20469;55.638;37.670;2023-06-22T04:52:45;19.60;1.00
34201;DHT22;20469;55.638;37.670;2023-06-22T04:55:12;19.80;1.00
34201;DHT22;20469;55.638;37.670;2023-06-22T04:57:41;19.60;1.00
34201;DHT22;20469;55.638;37.670;2023-06-22T05:00:12;20.20;1.00
34201;DHT22;20469;55.638;37.670;2023-06-22T05:02:40;20.30;1.00
34201;DHT22;20469;55.638;37.670;2023-06-22T05:05:08;19.90;1.00
34201;DHT22;20469;55.638;37.670;2023-06-22T05:07:36;19.80;1.00
34201;DHT22;20469;55.638;37.670;2023-06-22T05:10:03;19.90;1.00
34201;DHT22;20469;55.638;37.670;2023-06-22T05:12:32;20.00;1.00
34201;DHT22;20469;55.638;37.670;2023-06-22T05:14:59;20.20;1.00
34201;DHT22;20469;55.638;37.670;2023-06-22T05:17:26;20.00;1.00
34201;DHT22;20469;55.638;37.670;2023-06-22T05:19:54;19.90;1.00
34201;DHT22;20469;55.638;37.670;2023-06-22T05:22:21;19.90;1.00
34201;DHT22;20469;55.638;37.670;2023-06-22T05:24:49;19.80;1.00
34201;DHT22;20469;55.638;37.670;2023-06-22T05:27:16;19.90;1.00
34201;DHT22;20469;55.638;37.670;2023-06-22T05:29:43;20.30;1.00
34201;DHT22;20469;55.638;37.670;2023-06-22T05:32:11;20.60;1.00
34201;DHT22;20469;55.638;37.670;2023-06-22T05:34:38;20.50;1.00
34201;DHT22;20469;55.638;37.670;2023-06-22T05:37:06;20.30;1.00
34201;DHT22;20469;55.638;37.670;2023-06-22T05:39:33;20.30;1.00
34201;DHT22;20469;55.638;37.670;2023-06-22T05:42:00;20.00;1.00
34201;DHT22;20469;55.638;37.670;2023-06-22T05:44:27;20.20;1.00
34201;DHT22;20469;55.638;37.670;2023-06-22T05:46:55;20.80;1.00
34201;DHT22;20469;55.638;37.670;2023-06-22T05:49:22;21.00;1.00
34201;DHT22;20469;55.638;37.670;2023-06-22T05:51:50;21.40;1.00
34201;DHT22;20469;55.638;37.670;2023-06-22T05:54:17;22.20;1.00
34201;DHT22;20469;55.638;37.670;2023-06-22T05:56:45;22.20;1.00
34201;DHT22;20469;55.638;37.670;2023-06-22T05:59:12;21.80;1.00
34201;DHT22;20469;55.638;37.670;2023-06-22T06:01:39;21.60;1.00
34201;DHT22;20469;55.638;37.670;2023-06-22T06:04:07;21.20;1.00
34201;DHT22;20469;55.638;37.670;2023-06-22T06:06:37;21.60;1.00
34201;DHT22;20469;55.638;37.670;2023-06-22T06:12:09;22.50;1.00
34201;DHT22;20469;55.638;37.670;2023-06-22T06:14:55;22.50;1.00
34201;DHT22;20469;55.638;37.670;2023-06-22T06:17:23;22.50;1.00
34201;DHT22;20469;55.638;37.670;2023-06-22T06:19:50;22.00;1.00
34201;DHT22;20469;55.638;37.670;2023-06-22T06:22:18;22.00;1.00
34201;DHT22;20469;55.638;37.670;2023-06-22T06:24:47;22.30;1.00
34201;DHT22;20469;55.638;37.670;2023-06-22T06:27:33;22.50;1.00
34201;DHT22;20469;55.638;37.670;2023-06-22T06:30:00;22.40;1.00
34201;DHT22;20469;55.638;37.670;2023-06-22T06:32:31;22.20;1.00
34201;DHT22;20469;55.638;37.670;2023-06-22T06:35:09;22.60;1.00
34201;DHT22;20469;55.638;37.670;2023-06-22T06:37:38;22.80;1.00
34201;DHT22;20469;55.638;37.670;2023-06-22T06:40:06;23.20;1.00
34201;DHT22;20469;55.638;37.670;2023-06-22T06:42:42;23.00;1.00
34201;DHT22;20469;55.638;37.670;2023-06-22T06:45:19;23.20;1.00
34201;DHT22;20469;55.638;37.670;2023-06-22T06:48:05;23.10;1.00
34201;DHT22;20469;55.638;37.670;2023-06-22T06:50:32;23.50;1.00
34201;DHT22;20469;55.638;37.670;2023-06-22T06:55:46;23.40;1.00
34201;DHT22;20469;55.638;37.670;2023-06-22T06:58:14;23.20;1.00
34201;DHT22;20469;55.638;37.670;2023-06-22T07:00:42;23.10;1.00
34201;DHT22;20469;55.638;37.670;2023-06-22T07:03:10;22.80;1.00
34201;DHT22;20469;55.638;37.670;2023-06-22T07:05:37;22.80;1.00
34201;DHT22;20469;55.638;37.670;2023-06-22T07:08:05;23.20;1.00
34201;DHT22;20469;55.638;37.670;2023-06-22T07:10:32;24.00;1.00
34201;DHT22;20469;55.638;37.670;2023-06-22T07:12:59;23.40;1.00
34201;DHT22;20469;55.638;37.670;2023-06-22T07:15:27;23.50;1.00
34201;DHT22;20469;55.638;37.670;2023-06-22T07:17:54;23.00;1.00
34201;DHT22;20469;55.638;37.670;2023-06-22T07:20:21;23.60;1.00
34201;DHT22;20469;55.638;37.670;2023-06-22T07:22:48;24.10;1.00
34201;DHT22;20469;55.638;37.670;2023-06-22T07:25:16;23.70;1.00
34201;DHT22;20469;55.638;37.670;2023-06-22T07:28:06;23.80;1.00
34201;DHT22;20469;55.638;37.670;2023-06-22T07:30:34;24.20;1.00
34201;DHT22;20469;55.638;37.670;2023-06-22T07:33:02;24.00;1.00
34201;DHT22;20469;55.638;37.670;2023-06-22T07:35:35;24.30;1.00
34201;DHT22;20469;55.638;37.670;2023-06-22T07:38:02;24.10;1.00
34201;DHT22;20469;55.638;37.670;2023-06-22T07:40:32;24.90;1.00
34201;DHT22;20469;55.638;37.670;2023-06-22T07:43:01;24.70;1.00
34201;DHT22;20469;55.638;37.670;2023-06-22T07:45:28;24.30;1.00
34201;DHT22;20469;55.638;37.670;2023-06-22T07:47:56;24.10;1.00
34201;DHT22;20469;55.638;37.670;2023-06-22T07:50:23;24.20;1.00
34201;DHT22;20469;55.638;37.670;2023-06-22T07:52:50;23.90;1.00
34201;DHT22;20469;55.638;37.670;2023-06-22T07:55:20;24.30;1.00
34201;DHT22;20469;55.638;37.670;2023-06-22T07:57:48;24.30;1.00
34201;DHT22;20469;55.638;37.670;2023-06-22T08:00:16;23.50;1.00
34201;DHT22;20469;55.638;37.670;2023-06-22T08:02:45;24.10;1.00
34201;DHT22;20469;55.638;37.670;2023-06-22T08:05:15;24.70;1.00
34201;DHT22;20469;55.638;37.670;2023-06-22T08:07:49;25.00;1.00
34201;DHT22;20469;55.638;37.670;2023-06-22T08:10:17;24.70;1.00
34201;DHT22;20469;55.638;37.670;2023-06-22T08:12:45;24.60;1.00
34201;DHT22;20469;55.638;37.670;2023-06-22T08:15:12;23.80;1.00
34201;DHT22;20469;55.638;37.670;2023-06-22T08:17:39;23.90;1.00
34201;DHT22;20469;55.638;37.670;2023-06-22T08:20:08;24.10;1.00
34201;DHT22;20469;55.638;37.670;2023-06-22T08:22:41;24.20;1.00
34201;DHT22;20469;55.638;37.670;2023-06-22T08:25:10;23.80;1.00
34201;DHT22;20469;55.638;37.670;2023-06-22T08:27:38;24.60;1.00
34201;DHT22;20469;55.638;37.670;2023-06-22T08:30:06;25.40;1.00
34201;DHT22;20469;55.638;37.670;2023-06-22T08:32:34;24.50;1.00
34201;DHT22;20469;55.638;37.670;2023-06-22T08:35:02;24.40;1.00
34201;DHT22;20469;55.638;37.670;2023-06-22T08:37:32;25.10;1.00
34201;DHT22;20469;55.638;37.670;2023-06-22T08:40:36;24.90;1.00
34201;DHT22;20469;55.638;37.670;2023-06-22T08:43:05;24.90;1.00
34201;DHT22;20469;55.638;37.670;2023-06-22T08:45:32;26.30;1.00
34201;DHT22;20469;55.638;37.670;2023-06-22T08:53:50;26.30;1.00
34201;DHT22;20469;55.638;37.670;2023-06-22T08:56:18;26.50;1.00
34201;DHT22;20469;55.638;37.670;2023-06-22T08:58:45;26.30;1.00
34201;DHT22;20469;55.638;37.670;2023-06-22T09:01:13;26.80;1.00
34201;DHT22;20469;55.638;37.670;2023-06-22T09:03:42;26.20;1.00
34201;DHT22;20469;55.638;37.670;2023-06-22T09:08:58;25.50;1.00
34201;DHT22;20469;55.638;37.670;2023-06-22T09:11:28;26.10;1.00
34201;DHT22;20469;55.638;37.670;2023-06-22T09:13:55;26.60;1.00
34201;DHT22;20469;55.638;37.670;2023-06-22T09:16:41;26.40;1.00
34201;DHT22;20469;55.638;37.670;2023-06-22T09:19:08;26.40;1.00
34201;DHT22;20469;55.638;37.670;2023-06-22T09:21:36;26.60;1.00
34201;DHT22;20469;55.638;37.670;2023-06-22T09:24:04;26.90;1.00
34201;DHT22;20469;55.638;37.670;2023-06-22T09:26:50;26.50;1.00
34201;DHT22;20469;55.638;37.670;2023-06-22T09:29:17;27.30;1.00
34201;DHT22;20469;55.638;37.670;2023-06-22T09:31:44;27.10;1.00
34201;DHT22;20469;55.638;37.670;2023-06-22T09:34:12;26.30;1.00
34201;DHT22;20469;55.638;37.670;2023-06-22T09:36:41;27.40;1.00
34201;DHT22;20469;55.638;37.670;2023-06-22T09:39:08;27.00;1.00
34201;DHT22;20469;55.638;37.670;2023-06-22T09:41:35;27.40;1.00
34201;DHT22;20469;55.638;37.670;2023-06-22T09:44:02;26.60;1.00
34201;DHT22;20469;55.638;37.670;2023-06-22T09:46:30;26.30;1.00
34201;DHT22;20469;55.638;37.670;2023-06-22T09:48:57;26.90;1.00
34201;DHT22;20469;55.638;37.670;2023-06-22T09:51:24;27.60;1.00
34201;DHT22;20469;55.638;37.670;2023-06-22T09:53:52;27.50;1.00
34201;DHT22;20469;55.638;37.670;2023-06-22T09:56:22;27.80;1.00
34201;DHT22;20469;55.638;37.670;2023-06-22T09:58:49;27.30;1.00
34201;DHT22;20469;55.638;37.670;2023-06-22T10:01:21;27.70;1.00
34201;DHT22;20469;55.638;37.670;2023-06-22T10:03:49;28.00;1.00
34201;DHT22;20469;55.638;37.670;2023-06-22T10:06:17;27.40;1.00
34201;DHT22;20469;55.638;37.670;2023-06-22T10:08:44;27.50;1.00
34201;DHT22;20469;55.638;37.670;2023-06-22T10:11:30;28.00;1.00
34201;DHT22;20469;55.638;37.670;2023-06-22T10:13:58;28.50;1.00
34201;DHT22;20469;55.638;37.670;2023-06-22T10:19:16;26.90;1.00
34201;DHT22;20469;55.638;37.670;2023-06-22T10:21:43;26.90;1.00
34201;DHT22;20469;55.638;37.670;2023-06-22T10:24:10;27.60;1.00
34201;DHT22;20469;55.638;37.670;2023-06-22T10:30:01;28.20;1.00
34201;DHT22;20469;55.638;37.670;2023-06-22T10:32:30;28.20;1.00
34201;DHT22;20469;55.638;37.670;2023-06-22T10:34:58;28.20;1.00
34201;DHT22;20469;55.638;37.670;2023-06-22T10:37:25;26.60;1.00
34201;DHT22;20469;55.638;37.670;2023-06-22T10:42:39;27.90;1.00
34201;DHT22;20469;55.638;37.670;2023-06-22T10:45:07;27.80;1.00
34201;DHT22;20469;55.638;37.670;2023-06-22T10:47:53;27.60;1.00
34201;DHT22;20469;55.638;37.670;2023-06-22T10:50:21;27.90;1.00
34201;DHT22;20469;55.638;37.670;2023-06-22T10:52:51;28.30;1.00
34201;DHT22;20469;55.638;37.670;2023-06-22T10:55:18;28.60;1.00
34201;DHT22;20469;55.638;37.670;2023-06-22T10:57:45;28.00;1.00
34201;DHT22;20469;55.638;37.670;2023-06-22T11:00:14;28.30;1.00
34201;DHT22;20469;55.638;37.670;2023-06-22T11:02:43;28.10;1.00
34201;DHT22;20469;55.638;37.670;2023-06-22T11:05:11;28.00;1.00
34201;DHT22;20469;55.638;37.670;2023-06-22T11:07:42;28.50;1.00
34201;DHT22;20469;55.638;37.670;2023-06-22T11:10:15;28.70;1.00
34201;DHT22;20469;55.638;37.670;2023-06-22T11:12:43;29.40;1.00
34201;DHT22;20469;55.638;37.670;2023-06-22T11:17:56;28.30;1.00
34201;DHT22;20469;55.638;37.670;2023-06-22T11:23:28;26.70;1.00
34201;DHT22;20469;55.638;37.670;2023-06-22T11:25:56;28.40;1.00
34201;DHT22;20469;55.638;37.670;2023-06-22T11:28:23;29.40;1.00
34201;DHT22;20469;55.638;37.670;2023-06-22T11:30:51;29.80;1.00
34201;DHT22;20469;55.638;37.670;2023-06-22T11:33:19;30.20;1.00
34201;DHT22;20469;55.638;37.670;2023-06-22T11:35:46;30.50;1.00
34201;DHT22;20469;55.638;37.670;2023-06-22T11:38:32;30.80;1.00
34201;DHT22;20469;55.638;37.670;2023-06-22T11:41:00;29.20;1.00
34201;DHT22;20469;55.638;37.670;2023-06-22T11:43:27;27.80;1.00
34201;DHT22;20469;55.638;37.670;2023-06-22T11:45:55;27.00;1.00
34201;DHT22;20469;55.638;37.670;2023-06-22T11:48:26;26.20;1.00
34201;DHT22;20469;55.638;37.670;2023-06-22T11:50:53;26.50;1.00
34201;DHT22;20469;55.638;37.670;2023-06-22T11:53:25;26.70;1.00
34201;DHT22;20469;55.638;37.670;2023-06-22T11:55:52;27.70;1.00
34201;DHT22;20469;55.638;37.670;2023-06-22T11:58:38;27.30;1.00
34201;DHT22;20469;55.638;37.670;2023-06-22T12:01:05;26.50;1.00
34201;DHT22;20469;55.638;37.670;2023-06-22T12:03:33;26.50;1.00
34201;DHT22;20469;55.638;37.670;2023-06-22T12:06:00;27.10;1.00
34201;DHT22;20469;55.638;37.670;2023-06-22T12:11:14;26.70;1.00
34201;DHT22;20469;55.638;37.670;2023-06-22T12:13:41;28.30;1.00
34201;DHT22;20469;55.638;37.670;2023-06-22T12:16:08;28.70;1.00
34201;DHT22;20469;55.638;37.670;2023-06-22T12:18:35;29.30;1.00
34201;DHT22;20469;55.638;37.670;2023-06-22T12:21:03;28.60;1.00
34201;DHT22;20469;55.638;37.670;2023-06-22T12:23:30;28.30;1.00
34201;DHT22;20469;55.638;37.670;2023-06-22T12:25:57;28.20;1.00
34201;DHT22;20469;55.638;37.670;2023-06-22T12:28:26;28.20;1.00
34201;DHT22;20469;55.638;37.670;2023-06-22T12:30:53;27.60;1.00
34201;DHT22;20469;55.638;37.670;2023-06-22T12:33:20;27.40;1.00
34201;DHT22;20469;55.638;37.670;2023-06-22T12:35:47;27.50;1.00
34201;DHT22;20469;55.638;37.670;2023-06-22T12:38:16;27.50;1.00
34201;DHT22;20469;55.638;37.670;2023-06-22T12:40:43;28.50;1.00
34201;DHT22;20469;55.638;37.670;2023-06-22T12:43:10;28.60;1.00
34201;DHT22;20469;55.638;37.670;2023-06-22T12:45:56;28.60;1.00
34201;DHT22;20469;55.638;37.670;2023-06-22T12:48:26;28.90;1.00
34201;DHT22;20469;55.638;37.670;2023-06-22T12:50:54;29.00;1.00
34201;DHT22;20469;55.638;37.670;2023-06-22T12:53:22;28.80;1.00
34201;DHT22;20469;55.638;37.670;2023-06-22T12:58:36;28.90;1.00
34201;DHT22;20469;55.638;37.670;2023-06-22T13:01:04;29.00;1.00
34201;DHT22;20469;55.638;37.670;2023-06-22T13:03:31;29.50;1.00
34201;DHT22;20469;55.638;37.670;2023-06-22T13:05:58;29.50;1.00
34201;DHT22;20469;55.638;37.670;2023-06-22T13:11:32;28.40;1.00
34201;DHT22;20469;55.638;37.670;2023-06-22T13:13:59;29.00;1.00
34201;DHT22;20469;55.638;37.670;2023-06-22T13:16:27;28.40;1.00
34201;DHT22;20469;55.638;37.670;2023-06-22T13:18:54;28.40;1.00
34201;DHT22;20469;55.638;37.670;2023-06-22T13:21:21;28.90;1.00
34201;DHT22;20469;55.638;37.670;2023-06-22T13:24:07;28.50;1.00
34201;DHT22;20469;55.638;37.670;2023-06-22T13:26:34;27.90;1.00
34201;DHT22;20469;55.638;37.670;2023-06-22T13:29:01;27.70;1.00
34201;DHT22;20469;55.638;37.670;2023-06-22T13:31:29;28.70;1.00
34201;DHT22;20469;55.638;37.670;2023-06-22T13:33:56;27.80;1.00
34201;DHT22;20469;55.638;37.670;2023-06-22T13:36:23;27.50;1.00
34201;DHT22;20469;55.638;37.670;2023-06-22T13:38:50;27.60;1.00
34201;DHT22;20469;55.638;37.670;2023-06-22T13:41:18;27.40;1.00
34201;DHT22;20469;55.638;37.670;2023-06-22T13:43:45;26.90;1.00
34201;DHT22;20469;55.638;37.670;2023-06-22T13:46:12;27.60;1.00
34201;DHT22;20469;55.638;37.670;2023-06-22T13:48:39;28.10;1.00
34201;DHT22;20469;55.638;37.670;2023-06-22T13:51:07;28.40;1.00
34201;DHT22;20469;55.638;37.670;2023-06-22T13:53:34;28.90;1.00
34201;DHT22;20469;55.638;37.670;2023-06-22T13:56:01;28.20;1.00
34201;DHT22;20469;55.638;37.670;2023-06-22T14:01:14;27.80;1.00
34201;DHT22;20469;55.638;37.670;2023-06-22T14:03:43;27.60;1.00
34201;DHT22;20469;55.638;37.670;2023-06-22T14:06:13;27.70;1.00
34201;DHT22;20469;55.638;37.670;2023-06-22T14:08:41;28.30;1.00
34201;DHT22;20469;55.638;37.670;2023-06-22T14:11:09;28.10;1.00
34201;DHT22;20469;55.638;37.670;2023-06-22T14:13:36;28.20;1.00
34201;DHT22;20469;55.638;37.670;2023-06-22T14:18:50;28.80;1.00
34201;DHT22;20469;55.638;37.670;2023-06-22T14:21:18;29.40;1.00
34201;DHT22;20469;55.638;37.670;2023-06-22T14:23:46;31.30;1.00
34201;DHT22;20469;55.638;37.670;2023-06-22T14:26:16;33.10;1.00
34201;DHT22;20469;55.638;37.670;2023-06-22T14:28:47;29.80;1.00
34201;DHT22;20469;55.638;37.670;2023-06-22T14:31:16;28.80;1.00
34201;DHT22;20469;55.638;37.670;2023-06-22T14:33:48;27.90;1.00
34201;DHT22;20469;55.638;37.670;2023-06-22T14:39:02;28.70;1.00
34201;DHT22;20469;55.638;37.670;2023-06-22T14:41:30;28.30;1.00
34201;DHT22;20469;55.638;37.670;2023-06-22T14:43:58;28.10;1.00
34201;DHT22;20469;55.638;37.670;2023-06-22T14:46:25;28.00;1.00
34201;DHT22;20469;55.638;37.670;2023-06-22T14:48:52;27.50;1.00
34201;DHT22;20469;55.638;37.670;2023-06-22T14:51:20;27.50;1.00
34201;DHT22;20469;55.638;37.670;2023-06-22T14:53:47;27.60;1.00
34201;DHT22;20469;55.638;37.670;2023-06-22T14:56:33;27.70;1.00
34201;DHT22;20469;55.638;37.670;2023-06-22T14:59:01;27.60;1.00
34201;DHT22;20469;55.638;37.670;2023-06-22T15:01:28;27.80;1.00
34201;DHT22;20469;55.638;37.670;2023-06-22T15:03:56;27.50;1.00
34201;DHT22;20469;55.638;37.670;2023-06-22T15:06:42;27.30;1.00
34201;DHT22;20469;55.638;37.670;2023-06-22T15:09:11;27.00;1.00
34201;DHT22;20469;55.638;37.670;2023-06-22T15:11:38;26.80;1.00
34201;DHT22;20469;55.638;37.670;2023-06-22T15:17:10;27.50;1.00
34201;DHT22;20469;55.638;37.670;2023-06-22T15:19:37;27.40;1.00
34201;DHT22;20469;55.638;37.670;2023-06-22T15:22:05;27.20;1.00
34201;DHT22;20469;55.638;37.670;2023-06-22T15:24:51;27.20;1.00
34201;DHT22;20469;55.638;37.670;2023-06-22T15:27:25;27.50;1.00
34201;DHT22;20469;55.638;37.670;2023-06-22T15:29:52;27.50;1.00
34201;DHT22;20469;55.638;37.670;2023-06-22T15:32:19;26.70;1.00
34201;DHT22;20469;55.638;37.670;2023-06-22T15:34:46;26.70;1.00
34201;DHT22;20469;55.638;37.670;2023-06-22T15:40:18;27.40;1.00
34201;DHT22;20469;55.638;37.670;2023-06-22T15:42:49;27.30;1.00
34201;DHT22;20469;55.638;37.670;2023-06-22T15:45:19;27.20;1.00
34201;DHT22;20469;55.638;37.670;2023-06-22T15:47:46;27.20;1.00
34201;DHT22;20469;55.638;37.670;2023-06-22T15:50:14;27.20;1.00
34201;DHT22;20469;55.638;37.670;2023-06-22T15:52:41;26.90;1.00
34201;DHT22;20469;55.638;37.670;2023-06-22T15:55:08;26.70;1.00
34201;DHT22;20469;55.638;37.670;2023-06-22T15:57:36;26.80;1.00
34201;DHT22;20469;55.638;37.670;2023-06-22T16:00:04;26.80;1.00
34201;DHT22;20469;55.638;37.670;2023-06-22T16:02:33;26.90;1.00
34201;DHT22;20469;55.638;37.670;2023-06-22T16:05:00;26.80;1.00
34201;DHT22;20469;55.638;37.670;2023-06-22T16:07:48;26.90;1.00
34201;DHT22;20469;55.638;37.670;2023-06-22T16:10:15;26.60;1.00
34201;DHT22;20469;55.638;37.670;2023-06-22T16:12:46;26.50;1.00
34201;DHT22;20469;55.638;37.670;2023-06-22T16:15:13;26.40;1.00
34201;DHT22;20469;55.638;37.670;2023-06-22T16:17:41;26.10;1.00
34201;DHT22;20469;55.638;37.670;2023-06-22T16:20:09;25.60;1.00
34201;DHT22;20469;55.638;37.670;2023-06-22T16:25:24;24.60;1.00
34201;DHT22;20469;55.638;37.670;2023-06-22T16:27:52;24.10;1.00
34201;DHT22;20469;55.638;37.670;2023-06-22T16:30:20;23.90;1.00
34201;DHT22;20469;55.638;37.670;2023-06-22T16:32:52;23.50;1.00
34201;DHT22;20469;55.638;37.670;2023-06-22T16:35:21;23.50;1.00
34201;DHT22;20469;55.638;37.670;2023-06-22T16:37:48;23.50;1.00
34201;DHT22;20469;55.638;37.670;2023-06-22T16:40:16;23.40;1.00
34201;DHT22;20469;55.638;37.670;2023-06-22T16:42:48;23.30;1.00
34201;DHT22;20469;55.638;37.670;2023-06-22T16:45:19;23.10;1.00